createdAt,value
2019-05-30T00:00:08.874Z,0.00
2019-05-30T00:00:53.879Z,0.00
2019-05-30T00:01:54.192Z,0.00
2019-05-30T00:02:54.004Z,0.00
2019-05-30T00:03:54.028Z,0.00
2019-05-30T00:04:54.155Z,0.00
2019-05-30T00:05:54.335Z,0.00
2019-05-30T00:06:54.423Z,0.00
2019-05-30T00:07:54.605Z,0.00
2019-05-30T00:08:54.826Z,0.00
2019-05-30T00:09:56.301Z,0.00
2019-05-30T00:10:56.407Z,0.00
2019-05-30T00:11:56.639Z,0.00
2019-05-30T00:12:56.673Z,0.00
2019-05-30T00:13:56.714Z,0.00
2019-05-30T00:14:56.488Z,0.00
2019-05-30T00:15:56.592Z,0.00
2019-05-30T00:16:56.815Z,0.00
2019-05-30T00:17:56.836Z,0.00
2019-05-30T00:18:57.059Z,0.00
2019-05-30T00:19:57.288Z,0.00
2019-05-30T00:20:58.657Z,0.00
2019-05-30T00:21:58.675Z,0.00
2019-05-30T00:22:58.835Z,0.00
2019-05-30T00:23:58.180Z,0.00
2019-05-30T00:24:58.395Z,0.00
2019-05-30T00:25:59.157Z,0.00
2019-05-30T00:27:00.176Z,0.00
2019-05-30T00:27:59.240Z,0.00
2019-05-30T00:29:00.302Z,0.00
2019-05-30T00:29:59.539Z,0.00
2019-05-30T00:31:00.432Z,0.00
2019-05-30T00:31:59.990Z,0.00
2019-05-30T00:33:00.716Z,0.00
2019-05-30T00:34:01.496Z,0.00
2019-05-30T00:35:01.931Z,0.00
2019-05-30T00:36:01.849Z,0.00
2019-05-30T00:37:02.051Z,0.00
2019-05-30T00:38:01.923Z,0.00
2019-05-30T00:39:01.896Z,0.00
2019-05-30T00:40:02.105Z,0.00
2019-05-30T00:41:02.118Z,0.00
2019-05-30T00:42:02.218Z,0.00
2019-05-30T00:43:02.444Z,0.00
2019-05-30T00:44:02.673Z,0.00
2019-05-30T00:45:11.317Z,0.00
2019-05-30T00:46:04.111Z,0.00
2019-05-30T00:47:04.435Z,0.00
2019-05-30T00:48:04.402Z,0.00
2019-05-30T00:49:04.548Z,0.00
2019-05-30T00:50:04.423Z,0.00
2019-05-30T00:51:04.670Z,0.00
2019-05-30T00:52:05.121Z,0.00
2019-05-30T00:53:05.353Z,0.00
2019-05-30T00:54:04.916Z,0.00
2019-05-30T00:55:05.142Z,0.00
2019-05-30T00:56:05.368Z,0.00
2019-05-30T00:57:06.867Z,0.00
2019-05-30T00:58:07.329Z,0.00
2019-05-30T00:59:06.960Z,0.00
2019-05-30T01:00:07.135Z,0.00
2019-05-30T01:01:07.117Z,0.00
2019-05-30T01:02:07.031Z,0.00
2019-05-30T01:03:09.039Z,0.00
2019-05-30T01:04:07.231Z,0.00
2019-05-30T01:05:08.057Z,0.00
2019-05-30T01:06:07.643Z,0.00
2019-05-30T01:07:07.867Z,0.00
2019-05-30T01:08:08.089Z,0.00
2019-05-30T01:09:08.311Z,0.00
2019-05-30T01:10:08.537Z,0.00
2019-05-30T01:11:08.767Z,0.00
2019-05-30T01:12:08.992Z,0.00
2019-05-30T01:13:09.217Z,0.00
2019-05-30T01:14:09.442Z,0.00
2019-05-30T01:15:09.657Z,0.00
2019-05-30T01:16:09.879Z,0.00
2019-05-30T01:17:10.097Z,0.00
2019-05-30T01:18:10.321Z,0.00
2019-05-30T01:19:10.543Z,0.00
2019-05-30T01:20:10.773Z,0.00
2019-05-30T01:21:10.992Z,0.00
2019-05-30T01:22:11.214Z,0.00
2019-05-30T01:23:11.446Z,0.00
2019-05-30T01:24:11.659Z,0.00
2019-05-30T01:25:11.886Z,0.00
2019-05-30T01:26:12.107Z,0.00
2019-05-30T01:27:12.330Z,0.00
2019-05-30T01:28:12.553Z,0.00
2019-05-30T01:29:12.778Z,0.00
2019-05-30T01:30:12.997Z,0.00
2019-05-30T01:31:13.231Z,0.00
2019-05-30T01:32:13.445Z,0.00
2019-05-30T01:33:13.666Z,0.00
2019-05-30T01:34:13.891Z,0.00
2019-05-30T01:35:14.113Z,0.00
2019-05-30T01:36:14.339Z,0.00
2019-05-30T01:37:14.564Z,0.00
2019-05-30T01:38:14.787Z,0.00
2019-05-30T01:39:15.007Z,0.00
2019-05-30T01:40:15.228Z,0.00
2019-05-30T01:41:17.539Z,0.00
2019-05-30T01:42:15.669Z,0.00
2019-05-30T01:43:15.883Z,0.00
2019-05-30T01:44:16.110Z,0.00
2019-05-30T01:45:16.331Z,0.00
2019-05-30T01:46:16.556Z,0.00
2019-05-30T01:47:16.779Z,0.00
2019-05-30T01:48:17.002Z,0.00
2019-05-30T01:49:17.224Z,0.00
2019-05-30T01:50:17.449Z,0.00
2019-05-30T01:51:17.685Z,0.00
2019-05-30T01:52:17.896Z,0.00
2019-05-30T01:53:18.119Z,0.00
2019-05-30T01:54:18.341Z,0.00
2019-05-30T01:55:18.567Z,0.00
2019-05-30T01:56:18.790Z,0.00
2019-05-30T01:57:19.012Z,0.00
2019-05-30T01:58:19.238Z,0.00
2019-05-30T01:59:19.459Z,0.00
2019-05-30T02:00:21.548Z,0.00
2019-05-30T02:01:25.093Z,0.00
2019-05-30T02:02:20.124Z,0.00
2019-05-30T02:03:20.350Z,0.00
2019-05-30T02:04:20.570Z,0.00
2019-05-30T02:05:20.793Z,0.00
2019-05-30T02:06:21.014Z,0.00
2019-05-30T02:07:21.239Z,0.00
2019-05-30T02:08:21.460Z,0.00
2019-05-30T02:09:21.688Z,0.00
2019-05-30T02:10:21.912Z,0.00
2019-05-30T02:11:22.128Z,0.00
2019-05-30T02:12:22.350Z,0.00
2019-05-30T02:13:22.575Z,0.00
2019-05-30T02:14:22.787Z,0.00
2019-05-30T02:15:23.031Z,0.00
2019-05-30T02:16:23.254Z,0.00
2019-05-30T02:17:23.479Z,0.00
2019-05-30T02:18:23.700Z,0.00
2019-05-30T02:19:23.920Z,0.00
2019-05-30T02:20:24.141Z,0.00
2019-05-30T02:21:24.364Z,4.00
2019-05-30T02:22:24.591Z,4.00
2019-05-30T02:23:24.815Z,4.00
2019-05-30T02:24:25.041Z,0.00
2019-05-30T02:25:25.268Z,0.00
2019-05-30T02:26:25.491Z,0.00
2019-05-30T02:27:25.709Z,4.00
2019-05-30T02:28:25.935Z,4.00
2019-05-30T02:29:26.161Z,4.00
2019-05-30T02:30:26.384Z,4.00
2019-05-30T02:31:38.545Z,4.00
2019-05-30T02:32:26.833Z,4.00
2019-05-30T02:33:27.057Z,4.00
2019-05-30T02:34:27.284Z,8.00
2019-05-30T02:35:27.502Z,4.00
2019-05-30T02:36:27.726Z,8.00
2019-05-30T02:37:27.949Z,8.00
2019-05-30T02:38:28.179Z,8.00
2019-05-30T02:39:28.396Z,12.00
2019-05-30T02:40:28.620Z,12.00
2019-05-30T02:41:28.852Z,16.00
2019-05-30T02:42:29.064Z,12.00
2019-05-30T02:43:29.297Z,16.00
2019-05-30T02:44:29.514Z,20.00
2019-05-30T02:45:29.741Z,20.00
2019-05-30T02:46:29.958Z,20.00
2019-05-30T02:47:30.181Z,28.00
2019-05-30T02:48:30.410Z,28.00
2019-05-30T02:49:30.635Z,32.00
2019-05-30T02:50:30.859Z,36.00
2019-05-30T02:51:31.087Z,44.00
2019-05-30T02:52:31.303Z,48.00
2019-05-30T02:53:31.526Z,60.00
2019-05-30T02:54:31.753Z,64.00
2019-05-30T02:55:31.972Z,72.00
2019-05-30T02:56:32.197Z,84.00
2019-05-30T02:57:32.421Z,92.00
2019-05-30T02:58:32.645Z,104.00
2019-05-30T02:59:32.868Z,112.00
2019-05-30T03:00:33.102Z,128.00
2019-05-30T03:01:33.312Z,144.00
2019-05-30T03:02:33.548Z,160.00
2019-05-30T03:03:33.759Z,176.00
2019-05-30T03:04:33.987Z,200.00
2019-05-30T03:05:34.207Z,224.00
2019-05-30T03:06:34.436Z,252.00
2019-05-30T03:07:34.653Z,276.00
2019-05-30T03:08:34.879Z,300.00
2019-05-30T03:09:35.105Z,320.00
2019-05-30T03:10:35.325Z,348.00
2019-05-30T03:11:35.546Z,376.00
2019-05-30T03:12:35.767Z,404.00
2019-05-30T03:13:35.991Z,432.00
2019-05-30T03:14:36.237Z,460.00
2019-05-30T03:15:36.440Z,500.00
2019-05-30T03:16:36.663Z,544.00
2019-05-30T03:17:36.887Z,592.00
2019-05-30T03:18:37.111Z,648.00
2019-05-30T03:19:37.332Z,708.00
2019-05-30T03:20:37.566Z,772.00
2019-05-30T03:21:37.795Z,836.00
2019-05-30T03:22:38.011Z,900.00
2019-05-30T03:23:38.234Z,972.00
2019-05-30T03:24:38.455Z,1040.00
2019-05-30T03:25:38.678Z,1116.00
2019-05-30T03:26:38.914Z,1196.00
2019-05-30T03:27:39.125Z,1280.00
2019-05-30T03:28:39.346Z,1380.00
2019-05-30T03:29:39.569Z,1524.00
2019-05-30T03:30:39.799Z,1624.00
2019-05-30T03:31:40.015Z,1700.00
2019-05-30T03:33:42.697Z,1844.00
2019-05-30T03:34:40.684Z,1964.00
2019-05-30T03:35:43.479Z,2148.00
2019-05-30T03:36:41.136Z,2292.00
2019-05-30T03:37:41.431Z,2428.00
2019-05-30T03:38:41.576Z,2472.00
2019-05-30T03:39:41.806Z,2520.00
2019-05-30T03:40:42.024Z,2716.00
2019-05-30T03:41:42.278Z,2864.00
2019-05-30T03:42:42.479Z,3108.00
2019-05-30T03:43:42.697Z,3384.00
2019-05-30T03:44:42.919Z,3944.00
2019-05-30T03:45:43.143Z,5636.00
2019-05-30T03:46:43.372Z,7304.00
2019-05-30T03:47:43.606Z,7560.00
2019-05-30T03:48:43.821Z,7284.00
2019-05-30T03:49:44.053Z,7232.00
2019-05-30T03:50:44.263Z,7784.00
2019-05-30T03:51:44.488Z,9020.00
2019-05-30T03:52:44.718Z,10784.00
2019-05-30T03:53:44.937Z,12096.00
2019-05-30T03:54:45.162Z,12736.00
2019-05-30T03:55:45.385Z,13056.00
2019-05-30T03:56:45.608Z,12896.00
2019-05-30T03:57:45.834Z,12480.00
2019-05-30T03:58:46.059Z,12672.00
2019-05-30T03:59:46.284Z,13696.00
2019-05-30T04:00:50.828Z,14048.00
2019-05-30T04:01:46.737Z,14304.00
2019-05-30T04:02:57.607Z,14336.00
2019-05-30T04:03:47.186Z,14048.00
2019-05-30T04:04:47.458Z,14464.00
2019-05-30T04:05:47.699Z,14912.00
2019-05-30T04:06:47.902Z,15136.00
2019-05-30T04:07:48.126Z,16480.00
2019-05-30T04:08:48.351Z,17984.00
2019-05-30T04:09:48.575Z,18560.00
2019-05-30T04:10:48.806Z,18944.00
2019-05-30T04:11:49.035Z,18848.00
2019-05-30T04:12:49.305Z,19008.00
2019-05-30T04:13:49.475Z,20352.00
2019-05-30T04:14:49.706Z,21536.00
2019-05-30T04:15:49.923Z,21824.00
2019-05-30T04:16:50.150Z,21632.00
2019-05-30T04:17:50.381Z,22720.00
2019-05-30T04:18:50.611Z,23424.00
2019-05-30T04:19:50.836Z,23552.00
2019-05-30T04:20:51.069Z,23712.00
2019-05-30T04:21:51.291Z,23872.00
2019-05-30T04:22:51.526Z,24288.00
2019-05-30T04:23:51.743Z,24832.00
2019-05-30T04:24:51.969Z,25216.00
2019-05-30T04:25:52.210Z,25600.00
2019-05-30T04:26:52.427Z,26144.00
2019-05-30T04:27:52.655Z,26208.00
2019-05-30T04:28:52.888Z,25760.00
2019-05-30T04:29:53.112Z,24480.00
2019-05-30T04:30:53.342Z,24928.00
2019-05-30T04:31:53.571Z,25696.00
2019-05-30T04:32:53.801Z,26176.00
2019-05-30T04:33:54.030Z,25984.00
2019-05-30T04:34:54.257Z,26208.00
2019-05-30T04:35:54.500Z,25728.00
2019-05-30T04:36:54.728Z,25760.00
2019-05-30T04:37:54.958Z,26176.00
2019-05-30T04:38:55.185Z,27776.00
2019-05-30T04:39:55.414Z,28992.00
2019-05-30T04:40:55.641Z,29600.00
2019-05-30T04:41:55.874Z,29632.00
2019-05-30T04:42:56.107Z,29408.00
2019-05-30T04:43:56.334Z,29888.00
2019-05-30T04:44:56.563Z,30624.00
2019-05-30T04:45:56.802Z,32768.00
2019-05-30T04:46:57.031Z,33728.00
2019-05-30T04:47:57.262Z,34368.00
2019-05-30T04:48:57.496Z,35200.00
2019-05-30T04:49:57.726Z,35680.00
2019-05-30T04:50:57.961Z,36032.00
2019-05-30T04:51:58.189Z,35968.00
2019-05-30T04:52:58.420Z,36000.00
2019-05-30T04:53:58.654Z,36736.00
2019-05-30T04:54:58.887Z,36672.00
2019-05-30T04:55:59.117Z,36832.00
2019-05-30T04:56:59.350Z,37600.00
2019-05-30T04:57:59.585Z,38080.00
2019-05-30T04:58:59.818Z,38784.00
2019-05-30T05:00:00.047Z,39264.00
2019-05-30T05:01:00.280Z,38592.00
2019-05-30T05:02:00.514Z,38272.00
2019-05-30T05:03:00.748Z,37696.00
2019-05-30T05:04:00.983Z,37248.00
2019-05-30T05:05:01.213Z,37024.00
2019-05-30T05:06:01.447Z,37152.00
2019-05-30T05:07:01.681Z,36320.00
2019-05-30T05:08:01.916Z,37792.00
2019-05-30T05:09:02.148Z,38304.00
2019-05-30T05:10:02.402Z,38240.00
2019-05-30T05:11:02.651Z,37184.00
2019-05-30T05:12:02.849Z,36032.00
2019-05-30T05:13:03.096Z,35744.00
2019-05-30T05:14:03.318Z,36352.00
2019-05-30T05:15:03.554Z,36384.00
2019-05-30T05:16:21.499Z,36320.00
2019-05-30T05:17:04.024Z,36288.00
2019-05-30T05:18:04.254Z,36256.00
2019-05-30T05:19:04.488Z,36064.00
2019-05-30T05:20:04.722Z,34752.00
2019-05-30T05:21:04.959Z,34560.00
2019-05-30T05:22:05.189Z,34464.00
2019-05-30T05:23:05.426Z,34496.00
2019-05-30T05:24:05.661Z,35264.00
2019-05-30T05:25:05.895Z,35680.00
2019-05-30T05:26:06.132Z,35712.00
2019-05-30T05:27:09.719Z,36384.00
2019-05-30T05:28:06.598Z,36800.00
2019-05-30T05:29:06.835Z,36960.00
2019-05-30T05:30:07.074Z,36928.00
2019-05-30T05:31:07.305Z,36352.00
2019-05-30T05:32:07.540Z,36032.00
2019-05-30T05:33:07.783Z,36096.00
2019-05-30T05:34:08.014Z,35968.00
2019-05-30T05:35:08.252Z,35840.00
2019-05-30T05:36:08.480Z,35392.00
2019-05-30T05:37:08.715Z,34624.00
2019-05-30T05:38:08.953Z,34176.00
2019-05-30T05:39:09.189Z,33632.00
2019-05-30T05:40:09.426Z,33184.00
2019-05-30T05:41:09.664Z,33152.00
2019-05-30T05:42:09.892Z,33216.00
2019-05-30T05:43:10.127Z,33600.00
2019-05-30T05:44:10.362Z,32960.00
2019-05-30T05:45:10.595Z,29856.00
2019-05-30T05:46:11.079Z,23808.00
2019-05-30T05:47:11.066Z,22912.00
2019-05-30T05:48:11.306Z,23744.00
2019-05-30T05:49:11.535Z,26176.00
2019-05-30T05:50:11.773Z,26912.00
2019-05-30T05:51:12.006Z,28224.00
2019-05-30T05:52:12.298Z,30240.00
2019-05-30T05:53:12.476Z,31200.00
2019-05-30T05:54:12.711Z,31904.00
2019-05-30T05:55:12.953Z,32800.00
2019-05-30T05:56:13.184Z,32832.00
2019-05-30T05:57:13.419Z,31552.00
2019-05-30T05:58:13.657Z,30048.00
2019-05-30T05:59:13.894Z,28576.00
2019-05-30T06:00:14.127Z,27872.00
2019-05-30T06:01:14.359Z,29152.00
2019-05-30T06:02:14.709Z,30592.00
2019-05-30T06:03:16.654Z,31136.00
2019-05-30T06:04:15.086Z,31136.00
2019-05-30T06:05:15.965Z,31136.00
2019-05-30T06:06:15.556Z,31008.00
2019-05-30T06:07:16.090Z,30912.00
2019-05-30T06:08:17.252Z,30336.00
2019-05-30T06:09:16.496Z,28704.00
2019-05-30T06:10:17.498Z,27040.00
2019-05-30T06:11:16.738Z,26016.00
2019-05-30T06:12:17.607Z,25536.00
2019-05-30T06:13:17.216Z,26240.00
2019-05-30T06:14:17.819Z,27264.00
2019-05-30T06:15:18.774Z,27136.00
2019-05-30T06:16:17.913Z,26080.00
2019-05-30T06:17:18.969Z,24064.00
2019-05-30T06:18:18.399Z,23744.00
2019-05-30T06:19:19.099Z,24672.00
2019-05-30T06:20:19.210Z,25664.00
2019-05-30T06:21:19.212Z,24416.00
2019-05-30T06:22:19.363Z,22656.00
2019-05-30T06:23:19.619Z,21216.00
2019-05-30T06:24:19.809Z,21728.00
2019-05-30T06:25:22.292Z,22624.00
2019-05-30T06:26:20.277Z,23328.00
2019-05-30T06:27:20.517Z,23648.00
2019-05-30T06:28:21.974Z,23712.00
2019-05-30T06:29:22.071Z,22944.00
2019-05-30T06:30:22.336Z,21664.00
2019-05-30T06:31:22.468Z,21184.00
2019-05-30T06:32:22.920Z,21664.00
2019-05-30T06:33:23.555Z,21280.00
2019-05-30T06:34:32.755Z,21888.00
2019-05-30T06:35:23.024Z,21088.00
2019-05-30T06:36:23.055Z,21120.00
2019-05-30T06:37:23.172Z,22368.00
2019-05-30T06:38:23.193Z,22784.00
2019-05-30T06:39:23.529Z,20992.00
2019-05-30T06:40:23.773Z,19232.00
2019-05-30T06:41:23.891Z,19392.00
2019-05-30T06:42:24.131Z,19648.00
2019-05-30T06:43:24.495Z,19264.00
2019-05-30T06:44:24.601Z,18720.00
2019-05-30T06:45:25.634Z,18880.00
2019-05-30T06:46:25.143Z,18720.00
2019-05-30T06:47:26.319Z,18016.00
2019-05-30T06:48:26.848Z,17856.00
2019-05-30T06:49:26.813Z,17440.00
2019-05-30T06:50:26.870Z,17152.00
2019-05-30T06:51:26.965Z,17408.00
2019-05-30T06:52:27.099Z,17120.00
2019-05-30T06:53:27.258Z,16864.00
2019-05-30T06:54:27.820Z,16640.00
2019-05-30T06:55:27.355Z,16128.00
2019-05-30T06:56:27.549Z,15936.00
2019-05-30T06:57:27.705Z,16000.00
2019-05-30T06:58:41.416Z,15616.00
2019-05-30T06:59:28.185Z,13492.00
2019-05-30T07:00:28.420Z,12080.00
2019-05-30T07:01:29.985Z,12088.00
2019-05-30T07:02:30.262Z,12136.00
2019-05-30T07:03:30.432Z,12176.00
2019-05-30T07:04:39.326Z,12212.00
2019-05-30T07:05:30.698Z,12252.00
2019-05-30T07:06:31.385Z,12280.00
2019-05-30T07:07:31.240Z,12328.00
2019-05-30T07:08:30.881Z,12340.00
2019-05-30T07:09:31.007Z,12364.00
2019-05-30T07:10:31.136Z,12408.00
2019-05-30T07:11:31.044Z,12476.00
2019-05-30T07:12:31.270Z,12508.00
2019-05-30T07:13:31.693Z,12524.00
2019-05-30T07:14:31.733Z,12528.00
2019-05-30T07:15:31.971Z,12664.00
2019-05-30T07:16:32.198Z,12772.00
2019-05-30T07:17:33.576Z,12832.00
2019-05-30T07:18:35.405Z,12740.00
2019-05-30T07:19:33.677Z,12928.00
2019-05-30T07:20:33.835Z,12968.00
2019-05-30T07:21:33.930Z,12952.00
2019-05-30T07:22:33.884Z,12808.00
2019-05-30T07:23:34.058Z,12652.00
2019-05-30T07:24:34.075Z,12492.00
2019-05-30T07:25:34.305Z,12460.00
2019-05-30T07:26:34.550Z,12348.00
2019-05-30T07:27:34.774Z,12196.00
2019-05-30T07:28:35.006Z,12052.00
2019-05-30T07:29:35.242Z,12024.00
2019-05-30T07:30:35.472Z,12036.00
2019-05-30T07:31:35.708Z,11980.00
2019-05-30T07:32:35.942Z,11884.00
2019-05-30T07:33:36.175Z,11768.00
2019-05-30T07:34:36.407Z,11696.00
2019-05-30T07:35:36.637Z,11500.00
2019-05-30T07:36:36.869Z,11328.00
2019-05-30T07:37:37.116Z,11132.00
2019-05-30T07:38:37.343Z,11112.00
2019-05-30T07:39:37.715Z,11212.00
2019-05-30T07:40:37.804Z,11132.00
2019-05-30T07:41:38.046Z,11068.00
2019-05-30T07:42:38.263Z,11024.00
2019-05-30T07:43:38.499Z,11024.00
2019-05-30T07:44:38.729Z,11012.00
2019-05-30T07:45:38.958Z,10956.00
2019-05-30T07:46:39.193Z,10960.00
2019-05-30T07:47:39.426Z,10932.00
2019-05-30T07:48:39.661Z,10916.00
2019-05-30T07:49:39.889Z,10916.00
2019-05-30T07:50:40.119Z,10888.00
2019-05-30T07:51:40.350Z,10884.00
2019-05-30T07:52:40.587Z,10884.00
2019-05-30T07:53:40.813Z,10916.00
2019-05-30T07:54:41.043Z,10924.00
2019-05-30T07:55:41.275Z,10940.00
2019-05-30T07:56:41.508Z,10924.00
2019-05-30T07:57:41.974Z,10916.00
2019-05-30T07:58:41.971Z,10808.00
2019-05-30T07:59:42.201Z,10704.00
2019-05-30T08:00:42.441Z,10560.00
2019-05-30T08:01:42.760Z,10428.00
2019-05-30T08:02:42.898Z,10416.00
2019-05-30T08:03:43.129Z,10380.00
2019-05-30T08:04:46.796Z,10344.00
2019-05-30T08:05:43.590Z,10280.00
2019-05-30T08:06:43.826Z,10236.00
2019-05-30T08:07:44.056Z,10220.00
2019-05-30T08:08:44.288Z,10188.00
2019-05-30T08:09:44.519Z,10148.00
2019-05-30T08:10:44.747Z,10136.00
2019-05-30T08:11:44.984Z,10088.00
2019-05-30T08:12:45.220Z,10084.00
2019-05-30T08:13:45.446Z,10104.00
2019-05-30T08:14:45.696Z,10120.00
2019-05-30T08:15:45.913Z,10104.00
2019-05-30T08:16:46.144Z,10068.00
2019-05-30T08:17:46.385Z,9912.00
2019-05-30T08:18:46.618Z,9828.00
2019-05-30T08:19:46.848Z,9716.00
2019-05-30T08:20:47.075Z,9884.00
2019-05-30T08:21:47.312Z,9952.00
2019-05-30T08:22:47.543Z,10052.00
2019-05-30T08:23:47.779Z,9964.00
2019-05-30T08:24:48.008Z,9900.00
2019-05-30T08:25:48.239Z,9920.00
2019-05-30T08:26:48.478Z,10336.00
2019-05-30T08:27:48.712Z,10352.00
2019-05-30T08:28:48.943Z,10432.00
2019-05-30T08:29:49.182Z,10468.00
2019-05-30T08:30:49.407Z,10628.00
2019-05-30T08:31:49.637Z,10936.00
2019-05-30T08:32:49.872Z,11184.00
2019-05-30T08:33:50.105Z,11504.00
2019-05-30T08:34:50.338Z,12012.00
2019-05-30T08:35:50.584Z,12424.00
2019-05-30T08:36:50.807Z,12716.00
2019-05-30T08:37:51.079Z,12816.00
2019-05-30T08:38:51.292Z,11492.00
2019-05-30T08:39:51.526Z,11924.00
2019-05-30T08:40:51.753Z,10896.00
2019-05-30T08:41:51.987Z,12692.00
2019-05-30T08:42:52.210Z,10012.00
2019-05-30T08:43:52.444Z,13076.00
2019-05-30T08:44:52.679Z,10884.00
2019-05-30T08:45:52.914Z,13292.00
2019-05-30T08:46:53.144Z,13392.00
2019-05-30T08:47:53.379Z,13496.00
2019-05-30T08:48:53.609Z,12900.00
2019-05-30T08:49:53.841Z,9660.00
2019-05-30T08:50:54.076Z,12308.00
2019-05-30T08:51:54.306Z,11928.00
2019-05-30T08:52:54.555Z,12184.00
2019-05-30T08:53:54.784Z,12060.00
2019-05-30T08:54:55.014Z,11764.00
2019-05-30T08:55:55.782Z,8988.00
2019-05-30T08:56:55.484Z,8964.00
2019-05-30T08:57:55.724Z,8916.00
2019-05-30T08:58:55.946Z,9004.00
2019-05-30T08:59:56.184Z,10708.00
2019-05-30T09:00:56.415Z,11664.00
2019-05-30T09:01:56.642Z,11892.00
2019-05-30T09:02:56.873Z,12428.00
2019-05-30T09:03:57.106Z,13012.00
2019-05-30T09:04:57.337Z,13448.00
2019-05-30T09:06:03.784Z,13280.00
2019-05-30T09:06:57.805Z,12940.00
2019-05-30T09:07:58.034Z,10360.00
2019-05-30T09:08:58.276Z,11384.00
2019-05-30T09:09:58.505Z,10440.00
2019-05-30T09:10:58.738Z,13032.00
2019-05-30T09:11:58.970Z,12844.00
2019-05-30T09:12:59.199Z,12700.00
2019-05-30T09:13:59.432Z,12504.00
2019-05-30T09:14:59.667Z,12080.00
2019-05-30T09:15:59.899Z,10468.00
2019-05-30T09:17:00.130Z,9144.00
2019-05-30T09:18:00.358Z,9232.00
2019-05-30T09:19:00.599Z,12184.00
2019-05-30T09:20:00.823Z,12584.00
2019-05-30T09:21:01.055Z,13300.00
2019-05-30T09:22:01.296Z,13160.00
2019-05-30T09:23:01.525Z,12876.00
2019-05-30T09:24:01.866Z,13668.00
2019-05-30T09:25:01.991Z,11560.00
2019-05-30T09:26:02.222Z,14064.00
2019-05-30T09:27:02.470Z,12552.00
2019-05-30T09:28:02.688Z,11984.00
2019-05-30T09:29:03.831Z,13156.00
2019-05-30T09:30:03.155Z,14528.00
2019-05-30T09:31:03.382Z,14592.00
2019-05-30T09:32:03.613Z,14012.00
2019-05-30T09:33:03.857Z,13076.00
2019-05-30T09:34:04.078Z,10228.00
2019-05-30T09:35:04.313Z,9904.00
2019-05-30T09:36:13.240Z,9608.00
2019-05-30T09:37:04.782Z,9560.00
2019-05-30T09:38:05.014Z,9360.00
2019-05-30T09:39:05.246Z,9584.00
2019-05-30T09:40:05.479Z,9964.00
2019-05-30T09:41:05.712Z,10164.00
2019-05-30T09:42:05.947Z,10216.00
2019-05-30T09:43:06.181Z,10172.00
2019-05-30T09:44:06.415Z,10212.00
2019-05-30T09:45:06.647Z,10344.00
2019-05-30T09:46:06.879Z,10336.00
2019-05-30T09:47:07.110Z,12064.00
2019-05-30T09:48:07.343Z,12316.00
2019-05-30T09:49:07.579Z,10304.00
2019-05-30T09:50:07.810Z,10536.00
2019-05-30T09:51:08.043Z,10832.00
2019-05-30T09:52:08.277Z,10480.00
2019-05-30T09:53:08.510Z,10104.00
2019-05-30T09:54:08.741Z,9860.00
2019-05-30T09:55:08.977Z,9740.00
2019-05-30T09:56:09.209Z,9888.00
2019-05-30T09:57:09.447Z,10188.00
2019-05-30T09:58:09.675Z,10524.00
2019-05-30T09:59:09.911Z,11588.00
2019-05-30T10:00:10.141Z,10956.00
2019-05-30T10:01:10.380Z,11060.00
2019-05-30T10:02:10.609Z,12000.00
2019-05-30T10:03:10.840Z,11728.00
2019-05-30T10:04:11.080Z,11712.00
2019-05-30T10:05:11.319Z,11496.00
2019-05-30T10:06:11.539Z,11680.00
2019-05-30T10:07:11.770Z,11964.00
2019-05-30T10:08:12.005Z,12736.00
2019-05-30T10:09:12.240Z,12568.00
2019-05-30T10:10:12.467Z,13060.00
2019-05-30T10:11:15.982Z,13708.00
2019-05-30T10:12:12.929Z,13524.00
2019-05-30T10:13:13.174Z,13612.00
2019-05-30T10:14:13.392Z,14232.00
2019-05-30T10:15:13.641Z,15040.00
2019-05-30T10:16:13.857Z,14624.00
2019-05-30T10:17:14.092Z,14752.00
2019-05-30T10:18:14.322Z,14656.00
2019-05-30T10:19:14.557Z,13464.00
2019-05-30T10:20:14.798Z,14656.00
2019-05-30T10:21:15.025Z,13700.00
2019-05-30T10:22:15.256Z,13304.00
2019-05-30T10:23:15.489Z,14656.00
2019-05-30T10:24:15.723Z,12368.00
2019-05-30T10:25:15.956Z,11728.00
2019-05-30T10:26:16.189Z,12080.00
2019-05-30T10:27:16.427Z,13048.00
2019-05-30T10:28:16.657Z,13180.00
2019-05-30T10:29:16.893Z,13180.00
2019-05-30T10:30:17.124Z,12896.00
2019-05-30T10:31:17.355Z,12636.00
2019-05-30T10:32:17.589Z,13352.00
2019-05-30T10:33:17.823Z,15104.00
2019-05-30T10:34:18.058Z,14848.00
2019-05-30T10:35:18.293Z,14444.00
2019-05-30T10:36:20.185Z,13216.00
2019-05-30T10:37:18.757Z,12420.00
2019-05-30T10:38:20.111Z,12888.00
2019-05-30T10:39:19.224Z,13148.00
2019-05-30T10:40:19.454Z,13040.00
2019-05-30T10:41:19.686Z,13128.00
2019-05-30T10:42:19.930Z,12968.00
2019-05-30T10:43:20.160Z,12920.00
2019-05-30T10:44:20.402Z,12924.00
2019-05-30T10:45:20.627Z,13212.00
2019-05-30T10:46:20.957Z,13608.00
2019-05-30T10:47:21.122Z,13860.00
2019-05-30T10:48:21.390Z,14092.00
2019-05-30T10:49:34.181Z,14036.00
2019-05-30T10:50:21.819Z,14072.00
2019-05-30T10:51:22.054Z,14036.00
2019-05-30T10:52:22.995Z,13812.00
2019-05-30T10:53:22.477Z,13904.00
2019-05-30T10:54:22.714Z,14288.00
2019-05-30T10:55:22.944Z,14660.00
2019-05-30T10:56:23.181Z,15360.00
2019-05-30T10:57:23.412Z,15200.00
2019-05-30T10:58:23.644Z,14248.00
2019-05-30T10:59:23.897Z,14212.00
2019-05-30T11:00:24.115Z,13852.00
2019-05-30T11:01:24.349Z,13484.00
2019-05-30T11:02:24.581Z,13200.00
2019-05-30T11:03:24.817Z,13188.00
2019-05-30T11:04:25.053Z,13464.00
2019-05-30T11:05:25.285Z,13720.00
2019-05-30T11:06:25.520Z,14512.00
2019-05-30T11:07:25.753Z,15392.00
2019-05-30T11:08:25.985Z,15072.00
2019-05-30T11:09:26.219Z,15040.00
2019-05-30T11:10:26.461Z,15456.00
2019-05-30T11:11:26.683Z,14552.00
2019-05-30T11:12:26.915Z,14944.00
2019-05-30T11:13:27.149Z,15264.00
2019-05-30T11:14:27.383Z,15520.00
2019-05-30T11:15:27.626Z,15872.00
2019-05-30T11:16:27.861Z,14424.00
2019-05-30T11:17:28.087Z,13484.00
2019-05-30T11:18:28.335Z,12844.00
2019-05-30T11:19:28.562Z,12752.00
2019-05-30T11:20:28.793Z,12956.00
2019-05-30T11:21:29.030Z,13316.00
2019-05-30T11:22:29.357Z,13520.00
2019-05-30T11:23:29.517Z,13712.00
2019-05-30T11:24:29.750Z,14144.00
2019-05-30T11:25:29.992Z,14240.00
2019-05-30T11:26:30.215Z,14344.00
2019-05-30T11:27:30.453Z,13288.00
2019-05-30T11:28:30.697Z,12476.00
2019-05-30T11:29:30.956Z,12008.00
2019-05-30T11:30:31.157Z,11880.00
2019-05-30T11:31:31.391Z,12056.00
2019-05-30T11:32:31.627Z,11824.00
2019-05-30T11:33:31.861Z,11840.00
2019-05-30T11:34:32.093Z,11948.00
2019-05-30T11:35:32.328Z,12116.00
2019-05-30T11:36:32.563Z,12468.00
2019-05-30T11:37:32.794Z,12904.00
2019-05-30T11:38:33.040Z,13132.00
2019-05-30T11:39:33.271Z,13464.00
2019-05-30T11:40:33.514Z,13896.00
2019-05-30T11:41:33.747Z,14376.00
2019-05-30T11:42:33.980Z,15104.00
2019-05-30T11:43:34.213Z,15520.00
2019-05-30T11:44:34.451Z,15360.00
2019-05-30T11:45:34.681Z,15264.00
2019-05-30T11:46:34.917Z,15008.00
2019-05-30T11:47:35.151Z,14648.00
2019-05-30T11:48:35.383Z,14364.00
2019-05-30T11:49:35.616Z,14152.00
2019-05-30T11:50:35.849Z,13704.00
2019-05-30T11:51:36.085Z,13192.00
2019-05-30T11:52:36.317Z,12696.00
2019-05-30T11:53:36.552Z,12272.00
2019-05-30T11:54:36.782Z,12008.00
2019-05-30T11:55:37.017Z,11884.00
2019-05-30T11:56:37.257Z,11784.00
2019-05-30T11:57:37.485Z,11628.00
2019-05-30T11:58:37.732Z,11568.00
2019-05-30T11:59:37.951Z,11496.00
2019-05-30T12:00:38.185Z,11328.00
2019-05-30T12:01:38.419Z,11080.00
2019-05-30T12:02:38.653Z,10828.00
2019-05-30T12:03:38.886Z,10632.00
2019-05-30T12:04:39.114Z,10588.00
2019-05-30T12:05:39.356Z,10584.00
2019-05-30T12:06:39.600Z,10596.00
2019-05-30T12:07:39.824Z,10668.00
2019-05-30T12:08:40.055Z,10792.00
2019-05-30T12:09:40.290Z,10944.00
2019-05-30T12:10:40.522Z,11112.00